This is the latest recevied weather packets stored in our database for station/object DL3TR-13. If no packets are shown the sender has not sent any weather packets the latest 10 day(s).
| Time | Temp. | Humidity | Pressure | Rain* | Wind** | Luminosity | Snow |
|---|---|---|---|---|---|---|---|
| 1777620793 | 11.11° C | 49% | 1024.9 hPa | 0 mm | - | 504 W/m² | - |
| 1777620192 | 10° C | 48% | 1024.8 hPa | 0 mm | - | 476 W/m² | - |
| 1777619592 | 10° C | 48% | 1024.8 hPa | 0 mm | - | 452 W/m² | - |
| 1777618992 | 9.44° C | 51% | 1024.8 hPa | 0 mm | - | 424 W/m² | - |
| 1777618392 | 8.89° C | 52% | 1024.8 hPa | 0 mm | - | 396 W/m² | - |
| 1777617792 | 8.33° C | 52% | 1024.8 hPa | 0 mm | - | 369 W/m² | - |
| 1777617192 | 7.78° C | 55% | 1024.8 hPa | 0 mm | - | 339 W/m² | - |
| 1777616592 | 7.22° C | 58% | 1024.7 hPa | 0 mm | - | 311 W/m² | - |
| 1777615992 | 6.11° C | 61% | 1024.5 hPa | 0 mm | - | 283 W/m² | - |
| 1777615392 | 5.56° C | 65% | 1024.4 hPa | 0 mm | - | 255 W/m² | - |
| 1777614792 | 4.44° C | 68% | 1024.4 hPa | 0 mm | - | 227 W/m² | - |
| 1777614192 | 3.33° C | 69% | 1024.3 hPa | 0 mm | - | 197 W/m² | - |
| 1777613593 | 2.78° C | 67% | 1024.1 hPa | 0 mm | - | 26 W/m² | - |
| 1777612992 | 1.67° C | 70% | 1024 hPa | 0 mm | - | 23 W/m² | - |
| 1777612392 | 1.11° C | 73% | 1024 hPa | 0 mm | - | 21 W/m² | - |
| 1777611792 | 0.56° C | 74% | 1023.9 hPa | 0 mm | - | 19 W/m² | - |
| 1777611192 | -0.56° C | 76% | 1023.8 hPa | 0 mm | - | 16 W/m² | - |
| 1777610592 | -0.56° C | 76% | 1023.6 hPa | 0 mm | - | 14 W/m² | - |
| 1777609993 | -0.56° C | 73% | 1023.6 hPa | 0 mm | - | 11 W/m² | - |
| 1777609392 | 0.56° C | 69% | 1023.5 hPa | 0 mm | - | 9 W/m² | - |
| 1777608792 | 1.11° C | 66% | 1023.4 hPa | 0 mm | - | 5 W/m² | - |
| 1777608192 | 1.11° C | 66% | 1023.3 hPa | 0 mm | - | 0 W/m² | - |
| 1777607592 | 1.11° C | 66% | 1023.2 hPa | 0 mm | - | 0 W/m² | - |
| 1777606992 | 1.11° C | 65% | 1023.2 hPa | 0 mm | - | 0 W/m² | - |
| 1777606392 | 1.11° C | 66% | 1023.3 hPa | 0 mm | - | 0 W/m² | - |
* Rain latest hour (hover to see other rain measurements)
** Current wind speed in m/s (hover to see current wind gust speed)